• Join FlightAware (Why Join?)
  • Login
  • US Flag 
05:21AM EDT


 

Airport Tracker/Info


-or-


 

Live Flight TrackerFlight Track Log ✈ VH-TUY ✈ 20-Aug-2013 ✈ YDBY / DRB - YPKU / KNX

Flight Track Log - Related Links

Times and Time Zones

All times are in EDT time to prevent confusion due to time zone crossing. See the VH-TUY flight status page for this flight to view local times or setup timezone preferences in your user account.

Time Position Orientation Groundspeed Altitude Reporting Facility
EDT Latitude Longitude Course Direction KTS MPH feet Rate Location/Type
06:22AM -17.1384 124.3435 71° East  Level FlightAware Approximate
06:23AM -17.1247 124.3836 70° East  Level FlightAware Approximate
06:24AM -17.1110 124.4237 70° East  Level FlightAware Approximate
06:24AM -17.1046 124.4424 70° East 9,000  Level Aus ATC (Calculated)
06:25AM -17.0972 124.4638 70° East  Level FlightAware Approximate
06:26AM -17.0854 124.4985 70° East  Level FlightAware Approximate
06:27AM -17.0717 124.5386 70° East  Level FlightAware Approximate
06:28AM -17.0579 124.5787 70° East  Level FlightAware Approximate
06:29AM -17.0458 124.6193 71° East  Level Estimated
06:30AM -17.0322 124.6595 71° East  Level FlightAware Approximate
06:30AM -17.0429 124.6224 360° North 9,000  Level Aus ATC (Calculated)
06:30AM -17.0429 124.6224 71° East 9,000  Level Aus ATC (Calculated)
06:31AM -17.0294 124.6626 71° East  Level FlightAware Approximate
06:32AM -17.0232 124.6809 71° East  Level FlightAware Approximate
06:33AM -17.0094 124.7217 71° East  Level FlightAware Approximate
06:34AM -16.9957 124.7625 71° East  Level FlightAware Approximate
06:35AM -16.9819 124.8033 71° East  Level FlightAware Approximate
06:36AM -16.9681 124.8441 71° East  Level FlightAware Approximate
06:37AM -16.9543 124.8849 71° East  Level FlightAware Approximate
06:38AM -16.9405 124.9257 71° East  Level FlightAware Approximate
06:39AM -16.9267 124.9665 71° East  Level FlightAware Approximate
06:40AM -16.9129 125.0072 70° East  Level FlightAware Approximate
06:41AM -16.8990 125.0480 70° East  Level FlightAware Approximate
06:42AM -16.8852 125.0887 70° East  Level FlightAware Approximate
06:43AM -16.8714 125.1295 70° East  Level FlightAware Approximate
06:44AM -16.8575 125.1702 70° East  Level FlightAware Approximate
06:45AM -16.8437 125.2109 70° East  Level FlightAware Approximate
06:46AM -16.8298 125.2517 70° East  Level FlightAware Approximate
06:47AM -16.8159 125.2924 70° East  Level FlightAware Approximate
06:48AM -16.8020 125.3331 70° East  Level FlightAware Approximate
06:49AM -16.7882 125.3738 70° East  Level FlightAware Approximate
06:50AM -16.7743 125.4145 70° East  Level FlightAware Approximate
06:51AM -16.7603 125.4552 70° East  Level FlightAware Approximate
06:52AM -16.7464 125.4959 70° East  Level FlightAware Approximate
06:53AM -16.7325 125.5366 70° East  Level FlightAware Approximate
06:54AM -16.7186 125.5773 70° East  Level FlightAware Approximate
06:55AM -16.7047 125.6180 70° East  Level FlightAware Approximate
06:56AM -16.6907 125.6586 70° East  Level FlightAware Approximate
06:57AM -16.6768 125.6993 70° East  Level FlightAware Approximate
06:58AM -16.6628 125.7399 70° East  Level FlightAware Approximate
06:59AM -16.6488 125.7806 70° East  Level FlightAware Approximate
07:00AM -16.6348 125.8212 70° East  Level FlightAware Approximate
07:00AM -16.6351 125.8205 70° East 9,000  Level Aus ATC (Calculated)
07:01AM -16.6155 125.8774 250° West 9,000  Level Aus ATC (Calculated)
07:02AM -16.6162 125.8754 70° East  Level FlightAware Approximate
07:03AM -16.5973 125.9302 70° East  Level FlightAware Approximate
07:03AM -16.5763 125.9912 250° West 9,000  Level Aus ATC (Calculated)
07:04AM -16.5833 125.9709 70° East  Level FlightAware Approximate
07:05AM -16.5613 126.0346 70° East  Level FlightAware Approximate
07:06AM -16.5473 126.0752 70° East  Level FlightAware Approximate
07:07AM -16.5333 126.1158 70° East  Level FlightAware Approximate
07:08AM -16.5192 126.1564 70° East  Level FlightAware Approximate
07:08AM -16.5173 126.1619 70° East 9,000  Level Aus ATC (Calculated)
07:10AM -16.4908 126.2383 70° East  Level FlightAware Approximate
07:11AM -16.4768 126.2789 70° East  Level FlightAware Approximate
07:12AM -16.4627 126.3195 70° East  Level FlightAware Approximate
07:13AM -16.4486 126.3600 70° East  Level FlightAware Approximate
07:14AM -16.4370 126.4015 74° East  Level Estimated
07:15AM -16.4255 126.4429 74° East  Level FlightAware Approximate
07:15AM -16.4385 126.3892 74° East 9,000  Level Aus ATC (Calculated)
07:16AM -16.4269 126.4306 74° East  Level FlightAware Approximate
07:17AM -16.4154 126.4721 74° East  Level FlightAware Approximate
07:17AM -16.3991 126.5169 74° East  Level Aus ATC (Calculated)
07:19AM -16.3776 126.5943 74° East  Level FlightAware Approximate
07:20AM -16.3661 126.6354 74° East  Level FlightAware Approximate
07:21AM -16.3547 126.6765 74° East  Level FlightAware Approximate
07:22AM -16.3433 126.7176 74° East  Level FlightAware Approximate
07:23AM -16.3318 126.7586 74° East  Level FlightAware Approximate
07:24AM -16.3204 126.7997 74° East  Level FlightAware Approximate
07:24AM -16.3202 126.8003 74° East  Level Aus ATC (Calculated)
07:25AM -16.3087 126.8414 74° East  Level FlightAware Approximate
07:26AM -16.2973 126.8824 74° East  Level FlightAware Approximate
07:27AM -16.2858 126.9235 74° East  Level FlightAware Approximate
07:28AM -16.2743 126.9645 74° East  Level FlightAware Approximate
07:29AM -16.2628 127.0056 74° East  Level FlightAware Approximate
07:29AM -16.2608 127.0127 74° East  Level Aus ATC (Calculated)
07:30AM -16.2513 127.0466 74° East  Level FlightAware Approximate
07:31AM -16.2462 127.0647 74° East  Level FlightAware Approximate
07:32AM -16.2347 127.1057 74° East  Level FlightAware Approximate
07:33AM -16.2232 127.1468 74° East  Level FlightAware Approximate
07:34AM -16.2117 127.1878 74° East  Level FlightAware Approximate
07:35AM -16.2001 127.2288 74° East  Level FlightAware Approximate
07:36AM -16.1886 127.2698 74° East  Level FlightAware Approximate
07:37AM -16.1770 127.3108 74° East  Level FlightAware Approximate
07:38AM -16.1655 127.3518 74° East  Level FlightAware Approximate
07:39AM -16.1539 127.3928 74° East  Level FlightAware Approximate
07:40AM -16.1423 127.4338 74° East  Level FlightAware Approximate
07:41AM -16.1307 127.4748 74° East  Level FlightAware Approximate
07:42AM -16.1191 127.5158 74° East  Level FlightAware Approximate
07:43AM -16.1075 127.5568 74° East  Level FlightAware Approximate
07:44AM -16.0959 127.5977 74° East  Level FlightAware Approximate
07:45AM -16.0843 127.6387 74° East  Level FlightAware Approximate
07:46AM -16.0727 127.6797 74° East  Level FlightAware Approximate
07:47AM -16.0611 127.7206 74° East  Level FlightAware Approximate
07:48AM -16.0494 127.7616 74° East  Level FlightAware Approximate
07:49AM -16.0378 127.8025 74° East  Level FlightAware Approximate
07:50AM -16.0261 127.8435 74° East  Level FlightAware Approximate
07:50AM -16.0010 127.9317 360° North  Level Aus ATC (Calculated)
07:50AM -16.0010 127.9317 73° East  Level Aus ATC (Calculated)
07:52AM -15.9864 127.9829 73° East  Level FlightAware Approximate
07:53AM -15.9747 128.0238 73° East  Level FlightAware Approximate
07:54AM -15.9630 128.0647 73° East  Level FlightAware Approximate
07:55AM -15.9513 128.1056 73° East  Level FlightAware Approximate
07:56AM -15.9396 128.1465 73° East  Level FlightAware Approximate
07:57AM -15.9278 128.1874 73° East  Level FlightAware Approximate
07:58AM -15.9161 128.2283 73° East  Level FlightAware Approximate
07:59AM -15.9044 128.2692 73° East  Level FlightAware Approximate
08:00AM -15.8926 128.3101 73° East  Level FlightAware Approximate
08:01AM -15.8809 128.3510 73° East  Level FlightAware Approximate
08:02AM -15.8691 128.3919 73° East  Level FlightAware Approximate
08:03AM -15.8573 128.4327 73° East  Level FlightAware Approximate
08:04AM -15.8456 128.4736 73° East  Level FlightAware Approximate
08:05AM -15.8338 128.5145 73° East  Level FlightAware Approximate
08:06AM -15.8220 128.5553 73° East  Level FlightAware Approximate
08:07AM -15.8102 128.5962 73° East  Level FlightAware Approximate
08:08AM -15.7984 128.6371 73° East  Level FlightAware Approximate
08:09AM -15.7866 128.6779 73° East  Level FlightAware Approximate
08:09AM -15.7984 128.6370 73° East  Level Aus ATC (Calculated)
08:10AM -15.7866 128.6778 74° East  Level Estimated
08:11AM -15.7780 128.7074 74° East  Level FlightAware Approximate
08:12AM -15.7781 128.7075 74° East  Level Estimated
08:13AM -15.7781 128.7075 74° East  Level Estimated
08:14AM -15.7781 128.7075 74° East  Level Estimated
08:15AM -15.7781 128.7075 74° East  Level Estimated
08:16AM -15.7781 128.7075 74° East  Level Estimated
08:17AM -15.7781 128.7075 74° East  Level Estimated
08:18AM -15.7781 128.7075 74° East  Level Estimated
08:19AM -15.7781 128.7075 74° East  Level Estimated
08:20AM -15.7781 128.7075 74° East  Level Estimated
08:21AM -15.7781 128.7075 74° East  Level Estimated
08:22AM -15.7781 128.7075 74° East  Level Estimated
08:23AM -15.7781 128.7075 74° East  Level Estimated
08:24AM -15.7781 128.7075 74° East  Level Estimated
08:25AM -15.7781 128.7075 74° East  Level Estimated